METAR Data
IDs: Format: Raw Decoded Include TAF

Data at: 2111 UTC 19 May 2019

METAR for:KJAX (Jacksonville Intl, FL, US)
Text:KJAX 192056Z 11010KT 10SM FEW040 SCT065 SCT250 29/19 A3000 RMK AO2 SLP159 T02940189 56016
Temperature: 29.4°C ( 85°F)
Dewpoint: 18.9°C ( 66°F) [RH = 53%]
Pressure (altimeter):30.00 inches Hg (1016.0 mb) [Sea level pressure: 1015.9 mb]
Winds:from the ESE (110 degrees) at 12 MPH (10 knots; 5.1 m/s)
Visibility:10 or more sm (16+ km)
Ceiling:at least 12,000 feet AGL
Clouds: few clouds at 4000 feet AGL, scattered clouds at 6500 feet AGL, scattered clouds at 25000 feet AGL

METAR for:KCRG (Jacksonville/Executi, FL, US)
Text:KCRG 192053Z 13010KT 10SM CLR 29/21 A3001 RMK AO2 SLP163 T02890206 58015
Temperature: 28.9°C ( 84°F)
Dewpoint: 20.6°C ( 69°F) [RH = 61%]
Pressure (altimeter):30.01 inches Hg (1016.3 mb) [Sea level pressure: 1016.3 mb]
Winds:from the SE (130 degrees) at 12 MPH (10 knots; 5.1 m/s)
Visibility:10 or more sm (16+ km)
Ceiling:at least 12,000 feet AGL
Clouds:sky clear below 12,000 feet AGL

METAR for:KNIP (Jacksonville (NAS), FL, US)
Text:KNIP 192053Z 11010KT 10SM SCT070 SCT250 31/18 A3001 RMK AO2 RAB03E20 SLP156 P0000 60000 T03060183 56018 $
Temperature: 30.6°C ( 87°F)
Dewpoint: 18.3°C ( 65°F) [RH = 48%]
Pressure (altimeter):30.01 inches Hg (1016.3 mb) [Sea level pressure: 1015.6 mb]
Winds:from the ESE (110 degrees) at 12 MPH (10 knots; 5.1 m/s)
Visibility:10 or more sm (16+ km)
Ceiling:at least 12,000 feet AGL
Clouds: scattered clouds at 7000 feet AGL, scattered clouds at 25000 feet AGL
QC Flag:SOME DATA ABOVE MAY BE INACCURATE!!!"$" is an indication the sensor requires maintenance.

METAR for:KNRB (Mayport (NS), FL, US)
Text:KNRB 192052Z AUTO 11011KT 10SM CLR 29/21 A3002 RMK AO2 SLP164 T02890211 56016 $
Temperature: 28.9°C ( 84°F)
Dewpoint: 21.1°C ( 70°F) [RH = 63%]
Pressure (altimeter):30.02 inches Hg (1016.7 mb) [Sea level pressure: 1016.4 mb]
Winds:from the ESE (110 degrees) at 13 MPH (11 knots; 5.7 m/s)
Visibility:10 or more sm (16+ km)
Ceiling:at least 12,000 feet AGL
Clouds:sky clear below 12,000 feet AGL
QC Flag:automated observation with no human augmentation; SOME DATA ABOVE MAY BE INACCURATE!!!"$" is an indication the sensor requires maintenance.

METAR for:KFHB (Fernandina Beach Mun, FL, US)
Text:KFHB 192055Z AUTO 12009KT 10SM CLR 28/22 A3002 RMK AO2 T02800215
Temperature: 28.0°C ( 82°F)
Dewpoint: 21.5°C ( 71°F) [RH = 68%]
Pressure (altimeter):30.02 inches Hg (1016.7 mb)
Winds:from the ESE (120 degrees) at 10 MPH (9 knots; 4.6 m/s)
Visibility:10 or more sm (16+ km)
Ceiling:at least 12,000 feet AGL
Clouds:sky clear below 12,000 feet AGL
QC Flag:automated observation with no human augmentation

METAR for:KVQQ (Jacksonville/Cecil A, FL, US)
Text:KVQQ 192050Z 15008KT 10SM SCT055 34/17 A2999
Temperature: 34.0°C ( 93°F)
Dewpoint: 17.0°C ( 63°F) [RH = 36%]
Pressure (altimeter):29.99 inches Hg (1015.7 mb)
Winds:from the SSE (150 degrees) at 9 MPH (8 knots; 4.1 m/s)
Visibility:10 or more sm (16+ km)
Ceiling:at least 12,000 feet AGL
Clouds: scattered clouds at 5500 feet AGL